X  Close Metar Aviation Weather Data     KBDL Bradley International Airport
Temperature
82°F Temperature
59°F Dewpoint
45% Humidity



Wind
10 MPH
16 KM/H
4 M/S
9 KTS



320°
NW
Current Conditions

Partly Cloudy Partly Cloudy
Pressure 1012.87 (hPa) - 29.91 (inHg)
Visibility 10 (mile) - 16.1 (km)
Airport
Airport-code KBDL

Location: Bradley International Airport
Distance: 21 (mi)

Metar:
KBDL 182151Z 32009KT 10SM FEW060 SCT210 BKN250 28/15 A2991 RMK AO2 SLP125 T02780150

Time: 07-18-2024 5:51 pm EDT